sensor_id;sensor_type;location;lat;lon;timestamp;temperature;humidity
5286;DHT22;2665;53.112;7.358;2023-05-20T00:00:08;10.90;99.40
5286;DHT22;2665;53.112;7.358;2023-05-20T00:02:35;10.90;92.90
5286;DHT22;2665;53.112;7.358;2023-05-20T00:05:01;10.90;72.90
5286;DHT22;2665;53.112;7.358;2023-05-20T00:07:26;10.90;95.20
5286;DHT22;2665;53.112;7.358;2023-05-20T00:09:52;10.90;81.40
5286;DHT22;2665;53.112;7.358;2023-05-20T00:12:17;10.90;99.90
5286;DHT22;2665;53.112;7.358;2023-05-20T00:14:43;10.90;99.90
5286;DHT22;2665;53.112;7.358;2023-05-20T00:17:09;10.90;99.90
5286;DHT22;2665;53.112;7.358;2023-05-20T00:19:34;10.90;99.90
5286;DHT22;2665;53.112;7.358;2023-05-20T00:22:00;11.00;99.90
5286;DHT22;2665;53.112;7.358;2023-05-20T00:24:26;11.00;99.90
5286;DHT22;2665;53.112;7.358;2023-05-20T00:26:52;11.00;99.90
5286;DHT22;2665;53.112;7.358;2023-05-20T00:29:20;11.00;99.90
5286;DHT22;2665;53.112;7.358;2023-05-20T00:31:45;11.10;99.90
5286;DHT22;2665;53.112;7.358;2023-05-20T00:34:11;11.10;99.90
5286;DHT22;2665;53.112;7.358;2023-05-20T00:36:37;11.10;99.90
5286;DHT22;2665;53.112;7.358;2023-05-20T00:39:03;11.10;99.90
5286;DHT22;2665;53.112;7.358;2023-05-20T00:41:28;11.20;99.90
5286;DHT22;2665;53.112;7.358;2023-05-20T00:43:54;11.20;99.90
5286;DHT22;2665;53.112;7.358;2023-05-20T00:46:21;11.20;99.90
5286;DHT22;2665;53.112;7.358;2023-05-20T00:48:48;11.30;99.90
5286;DHT22;2665;53.112;7.358;2023-05-20T00:51:14;11.30;99.90
5286;DHT22;2665;53.112;7.358;2023-05-20T00:53:40;11.30;99.90
5286;DHT22;2665;53.112;7.358;2023-05-20T00:56:07;11.40;99.90
5286;DHT22;2665;53.112;7.358;2023-05-20T00:58:34;11.40;99.90
5286;DHT22;2665;53.112;7.358;2023-05-20T01:01:01;11.50;99.90
5286;DHT22;2665;53.112;7.358;2023-05-20T01:03:27;11.50;99.90
5286;DHT22;2665;53.112;7.358;2023-05-20T01:05:53;11.50;99.90
5286;DHT22;2665;53.112;7.358;2023-05-20T01:08:19;11.50;99.90
5286;DHT22;2665;53.112;7.358;2023-05-20T01:10:48;11.50;99.90
5286;DHT22;2665;53.112;7.358;2023-05-20T01:13:19;11.60;99.90
5286;DHT22;2665;53.112;7.358;2023-05-20T01:15:47;11.60;99.90
5286;DHT22;2665;53.112;7.358;2023-05-20T01:18:14;11.70;99.90
5286;DHT22;2665;53.112;7.358;2023-05-20T01:20:45;11.70;99.90
5286;DHT22;2665;53.112;7.358;2023-05-20T01:23:13;11.70;99.90
5286;DHT22;2665;53.112;7.358;2023-05-20T01:25:39;11.70;99.90
5286;DHT22;2665;53.112;7.358;2023-05-20T01:28:06;11.70;99.90
5286;DHT22;2665;53.112;7.358;2023-05-20T01:30:36;11.70;99.90
5286;DHT22;2665;53.112;7.358;2023-05-20T01:33:10;11.70;99.90
5286;DHT22;2665;53.112;7.358;2023-05-20T01:35:38;11.70;99.90
5286;DHT22;2665;53.112;7.358;2023-05-20T01:38:05;11.60;16.90
5286;DHT22;2665;53.112;7.358;2023-05-20T01:40:32;11.50;15.40
5286;DHT22;2665;53.112;7.358;2023-05-20T01:42:59;11.50;8.20
5286;DHT22;2665;53.112;7.358;2023-05-20T01:45:25;11.40;48.30
5286;DHT22;2665;53.112;7.358;2023-05-20T01:47:51;11.40;99.90
5286;DHT22;2665;53.112;7.358;2023-05-20T01:50:17;11.40;99.90
5286;DHT22;2665;53.112;7.358;2023-05-20T01:52:42;11.30;99.90
5286;DHT22;2665;53.112;7.358;2023-05-20T01:55:08;11.40;99.90
5286;DHT22;2665;53.112;7.358;2023-05-20T01:57:34;11.40;99.90
5286;DHT22;2665;53.112;7.358;2023-05-20T02:00:00;11.40;99.90
5286;DHT22;2665;53.112;7.358;2023-05-20T02:02:26;11.40;99.90
5286;DHT22;2665;53.112;7.358;2023-05-20T02:04:54;11.40;99.90
5286;DHT22;2665;53.112;7.358;2023-05-20T02:07:19;11.50;99.90
5286;DHT22;2665;53.112;7.358;2023-05-20T02:09:45;11.50;99.90
5286;DHT22;2665;53.112;7.358;2023-05-20T02:12:11;11.50;99.90
5286;DHT22;2665;53.112;7.358;2023-05-20T02:14:46;11.50;99.90
5286;DHT22;2665;53.112;7.358;2023-05-20T02:17:12;11.50;99.90
5286;DHT22;2665;53.112;7.358;2023-05-20T02:19:41;11.50;99.90
5286;DHT22;2665;53.112;7.358;2023-05-20T02:22:07;11.40;99.90
5286;DHT22;2665;53.112;7.358;2023-05-20T02:24:33;11.40;99.90
5286;DHT22;2665;53.112;7.358;2023-05-20T02:26:58;11.40;99.90
5286;DHT22;2665;53.112;7.358;2023-05-20T02:29:24;11.40;99.90
5286;DHT22;2665;53.112;7.358;2023-05-20T02:31:50;11.40;99.90
5286;DHT22;2665;53.112;7.358;2023-05-20T02:34:20;11.40;99.90
5286;DHT22;2665;53.112;7.358;2023-05-20T02:36:46;11.40;99.90
5286;DHT22;2665;53.112;7.358;2023-05-20T02:39:11;11.40;99.90
5286;DHT22;2665;53.112;7.358;2023-05-20T02:41:37;11.40;99.90
5286;DHT22;2665;53.112;7.358;2023-05-20T02:44:03;11.40;99.90
5286;DHT22;2665;53.112;7.358;2023-05-20T02:46:30;11.40;99.90
5286;DHT22;2665;53.112;7.358;2023-05-20T02:48:55;11.40;99.90
5286;DHT22;2665;53.112;7.358;2023-05-20T02:51:22;11.40;99.90
5286;DHT22;2665;53.112;7.358;2023-05-20T02:53:47;11.40;54.90
5286;DHT22;2665;53.112;7.358;2023-05-20T02:56:13;11.40;14.50
5286;DHT22;2665;53.112;7.358;2023-05-20T02:58:38;11.40;1.00
5286;DHT22;2665;53.112;7.358;2023-05-20T03:01:04;11.40;1.00
5286;DHT22;2665;53.112;7.358;2023-05-20T03:03:31;11.40;1.00
5286;DHT22;2665;53.112;7.358;2023-05-20T03:05:58;11.40;1.00
5286;DHT22;2665;53.112;7.358;2023-05-20T03:08:23;11.40;1.00
5286;DHT22;2665;53.112;7.358;2023-05-20T03:10:49;11.40;1.00
5286;DHT22;2665;53.112;7.358;2023-05-20T03:13:15;11.40;1.00
5286;DHT22;2665;53.112;7.358;2023-05-20T03:15:41;11.30;1.00
5286;DHT22;2665;53.112;7.358;2023-05-20T03:18:08;11.30;1.00
5286;DHT22;2665;53.112;7.358;2023-05-20T03:20:34;11.30;1.00
5286;DHT22;2665;53.112;7.358;2023-05-20T03:23:03;11.30;1.00
5286;DHT22;2665;53.112;7.358;2023-05-20T03:25:29;11.20;1.00
5286;DHT22;2665;53.112;7.358;2023-05-20T03:27:55;11.20;1.00
5286;DHT22;2665;53.112;7.358;2023-05-20T03:30:23;11.10;1.00
5286;DHT22;2665;53.112;7.358;2023-05-20T03:32:48;11.10;1.00
5286;DHT22;2665;53.112;7.358;2023-05-20T03:35:14;11.00;99.90
5286;DHT22;2665;53.112;7.358;2023-05-20T03:37:40;10.90;99.90
5286;DHT22;2665;53.112;7.358;2023-05-20T03:40:07;10.80;99.90
5286;DHT22;2665;53.112;7.358;2023-05-20T03:42:35;10.70;99.90
5286;DHT22;2665;53.112;7.358;2023-05-20T03:45:00;10.60;99.90
5286;DHT22;2665;53.112;7.358;2023-05-20T03:47:27;10.60;99.90
5286;DHT22;2665;53.112;7.358;2023-05-20T03:49:52;10.50;99.90
5286;DHT22;2665;53.112;7.358;2023-05-20T03:52:18;10.50;99.90
5286;DHT22;2665;53.112;7.358;2023-05-20T03:54:44;10.40;1.00
5286;DHT22;2665;53.112;7.358;2023-05-20T03:57:09;10.40;99.90
5286;DHT22;2665;53.112;7.358;2023-05-20T03:59:35;10.30;99.90
5286;DHT22;2665;53.112;7.358;2023-05-20T04:02:02;10.30;1.00
5286;DHT22;2665;53.112;7.358;2023-05-20T04:04:28;10.30;1.00
5286;DHT22;2665;53.112;7.358;2023-05-20T04:06:53;10.30;99.90
5286;DHT22;2665;53.112;7.358;2023-05-20T04:09:20;10.20;1.00
5286;DHT22;2665;53.112;7.358;2023-05-20T04:11:46;10.20;1.00
5286;DHT22;2665;53.112;7.358;2023-05-20T04:14:12;10.20;99.90
5286;DHT22;2665;53.112;7.358;2023-05-20T04:16:38;10.10;99.90
5286;DHT22;2665;53.112;7.358;2023-05-20T04:19:03;10.10;99.90
5286;DHT22;2665;53.112;7.358;2023-05-20T04:21:29;10.10;99.90
5286;DHT22;2665;53.112;7.358;2023-05-20T04:23:55;10.10;99.90
5286;DHT22;2665;53.112;7.358;2023-05-20T04:26:21;10.10;99.90
5286;DHT22;2665;53.112;7.358;2023-05-20T04:28:47;10.10;99.90
5286;DHT22;2665;53.112;7.358;2023-05-20T04:31:15;10.10;99.90
5286;DHT22;2665;53.112;7.358;2023-05-20T04:33:41;10.10;99.90
5286;DHT22;2665;53.112;7.358;2023-05-20T04:36:10;10.10;99.90
5286;DHT22;2665;53.112;7.358;2023-05-20T04:38:37;10.10;99.90
5286;DHT22;2665;53.112;7.358;2023-05-20T04:41:03;10.10;99.90
5286;DHT22;2665;53.112;7.358;2023-05-20T04:43:29;10.10;99.90
5286;DHT22;2665;53.112;7.358;2023-05-20T04:45:58;10.10;99.90
5286;DHT22;2665;53.112;7.358;2023-05-20T04:48:30;10.10;99.90
5286;DHT22;2665;53.112;7.358;2023-05-20T04:50:56;10.20;99.90
5286;DHT22;2665;53.112;7.358;2023-05-20T04:53:22;10.20;99.90
5286;DHT22;2665;53.112;7.358;2023-05-20T04:55:48;10.20;99.90
5286;DHT22;2665;53.112;7.358;2023-05-20T04:58:21;10.20;99.90
5286;DHT22;2665;53.112;7.358;2023-05-20T05:00:49;10.30;99.90
5286;DHT22;2665;53.112;7.358;2023-05-20T05:03:14;10.30;99.90
5286;DHT22;2665;53.112;7.358;2023-05-20T05:05:40;10.30;99.90
5286;DHT22;2665;53.112;7.358;2023-05-20T05:08:07;10.40;99.90
5286;DHT22;2665;53.112;7.358;2023-05-20T05:10:34;10.40;99.90
5286;DHT22;2665;53.112;7.358;2023-05-20T05:13:00;10.50;99.90
5286;DHT22;2665;53.112;7.358;2023-05-20T05:15:26;10.50;99.90
5286;DHT22;2665;53.112;7.358;2023-05-20T05:17:52;10.50;99.90
5286;DHT22;2665;53.112;7.358;2023-05-20T05:20:18;10.50;99.90
5286;DHT22;2665;53.112;7.358;2023-05-20T05:22:44;10.60;99.90
5286;DHT22;2665;53.112;7.358;2023-05-20T05:25:10;10.60;99.90
5286;DHT22;2665;53.112;7.358;2023-05-20T05:27:36;10.70;99.90
5286;DHT22;2665;53.112;7.358;2023-05-20T05:30:03;10.70;99.90
5286;DHT22;2665;53.112;7.358;2023-05-20T05:32:29;10.70;99.90
5286;DHT22;2665;53.112;7.358;2023-05-20T05:34:54;10.80;99.90
5286;DHT22;2665;53.112;7.358;2023-05-20T05:37:20;10.80;71.90
5286;DHT22;2665;53.112;7.358;2023-05-20T05:39:46;10.80;99.90
5286;DHT22;2665;53.112;7.358;2023-05-20T05:42:12;10.90;99.90
5286;DHT22;2665;53.112;7.358;2023-05-20T05:44:37;10.90;99.90
5286;DHT22;2665;53.112;7.358;2023-05-20T05:47:03;11.00;97.00
5286;DHT22;2665;53.112;7.358;2023-05-20T05:49:30;11.10;99.90
5286;DHT22;2665;53.112;7.358;2023-05-20T05:51:55;11.10;99.90
5286;DHT22;2665;53.112;7.358;2023-05-20T05:54:21;11.20;99.90
5286;DHT22;2665;53.112;7.358;2023-05-20T05:56:47;11.20;99.90
5286;DHT22;2665;53.112;7.358;2023-05-20T05:59:12;11.30;99.90
5286;DHT22;2665;53.112;7.358;2023-05-20T06:01:38;11.40;53.40
5286;DHT22;2665;53.112;7.358;2023-05-20T06:04:03;11.50;1.00
5286;DHT22;2665;53.112;7.358;2023-05-20T06:06:30;11.60;1.00
5286;DHT22;2665;53.112;7.358;2023-05-20T06:08:55;11.60;1.00
5286;DHT22;2665;53.112;7.358;2023-05-20T06:11:22;11.70;1.00
5286;DHT22;2665;53.112;7.358;2023-05-20T06:13:48;11.80;1.00
5286;DHT22;2665;53.112;7.358;2023-05-20T06:16:14;11.90;1.00
5286;DHT22;2665;53.112;7.358;2023-05-20T06:18:39;11.90;1.00
5286;DHT22;2665;53.112;7.358;2023-05-20T06:21:05;12.00;1.00
5286;DHT22;2665;53.112;7.358;2023-05-20T06:23:31;12.00;1.00
5286;DHT22;2665;53.112;7.358;2023-05-20T06:25:57;12.10;1.00
5286;DHT22;2665;53.112;7.358;2023-05-20T06:28:23;12.20;1.00
5286;DHT22;2665;53.112;7.358;2023-05-20T06:30:49;12.30;1.00
5286;DHT22;2665;53.112;7.358;2023-05-20T06:33:15;12.30;1.00
5286;DHT22;2665;53.112;7.358;2023-05-20T06:35:42;12.40;1.00
5286;DHT22;2665;53.112;7.358;2023-05-20T06:38:07;12.50;1.00
5286;DHT22;2665;53.112;7.358;2023-05-20T06:40:33;12.60;1.00
5286;DHT22;2665;53.112;7.358;2023-05-20T06:42:59;12.60;1.00
5286;DHT22;2665;53.112;7.358;2023-05-20T11:18:20;21.50;99.90
5286;DHT22;2665;53.112;7.358;2023-05-20T11:20:45;21.60;99.90
5286;DHT22;2665;53.112;7.358;2023-05-20T11:23:13;22.00;99.90
5286;DHT22;2665;53.112;7.358;2023-05-20T11:25:39;21.80;99.90
5286;DHT22;2665;53.112;7.358;2023-05-20T11:28:11;21.60;99.90
5286;DHT22;2665;53.112;7.358;2023-05-20T11:30:38;21.70;99.90
5286;DHT22;2665;53.112;7.358;2023-05-20T11:33:04;21.90;99.90
5286;DHT22;2665;53.112;7.358;2023-05-20T11:35:31;21.70;99.90
5286;DHT22;2665;53.112;7.358;2023-05-20T11:38:02;21.40;99.90
5286;DHT22;2665;53.112;7.358;2023-05-20T11:40:28;22.20;99.90
5286;DHT22;2665;53.112;7.358;2023-05-20T11:42:56;22.90;99.90
5286;DHT22;2665;53.112;7.358;2023-05-20T11:45:23;22.80;99.90
5286;DHT22;2665;53.112;7.358;2023-05-20T11:48:02;23.10;99.90
5286;DHT22;2665;53.112;7.358;2023-05-20T11:50:32;23.20;99.90
5286;DHT22;2665;53.112;7.358;2023-05-20T11:52:58;24.30;99.90
5286;DHT22;2665;53.112;7.358;2023-05-20T11:57:51;26.60;99.90
5286;DHT22;2665;53.112;7.358;2023-05-20T12:00:17;26.60;99.90
5286;DHT22;2665;53.112;7.358;2023-05-20T12:02:43;26.80;99.90
5286;DHT22;2665;53.112;7.358;2023-05-20T12:05:09;27.30;99.90
5286;DHT22;2665;53.112;7.358;2023-05-20T12:07:35;27.80;99.90
5286;DHT22;2665;53.112;7.358;2023-05-20T12:10:02;27.40;99.90
5286;DHT22;2665;53.112;7.358;2023-05-20T12:12:28;26.90;99.90
5286;DHT22;2665;53.112;7.358;2023-05-20T12:14:53;25.70;99.90
5286;DHT22;2665;53.112;7.358;2023-05-20T12:17:19;24.40;99.90
5286;DHT22;2665;53.112;7.358;2023-05-20T12:19:45;23.40;99.90
5286;DHT22;2665;53.112;7.358;2023-05-20T12:22:10;22.40;99.90
5286;DHT22;2665;53.112;7.358;2023-05-20T12:24:36;22.20;99.90
5286;DHT22;2665;53.112;7.358;2023-05-20T12:27:02;22.70;99.90
5286;DHT22;2665;53.112;7.358;2023-05-20T12:29:31;23.50;99.90
5286;DHT22;2665;53.112;7.358;2023-05-20T12:31:56;24.40;99.90
5286;DHT22;2665;53.112;7.358;2023-05-20T12:34:22;23.90;99.90
5286;DHT22;2665;53.112;7.358;2023-05-20T12:36:48;23.40;99.90
5286;DHT22;2665;53.112;7.358;2023-05-20T12:39:14;22.80;99.90
5286;DHT22;2665;53.112;7.358;2023-05-20T12:41:42;22.30;99.90
5286;DHT22;2665;53.112;7.358;2023-05-20T12:44:07;22.10;99.90
5286;DHT22;2665;53.112;7.358;2023-05-20T12:46:36;23.10;99.90
5286;DHT22;2665;53.112;7.358;2023-05-20T12:49:02;24.10;99.90
5286;DHT22;2665;53.112;7.358;2023-05-20T12:51:28;23.80;99.90
5286;DHT22;2665;53.112;7.358;2023-05-20T12:53:54;23.30;99.90
5286;DHT22;2665;53.112;7.358;2023-05-20T12:56:19;23.00;99.90
5286;DHT22;2665;53.112;7.358;2023-05-20T12:58:45;22.60;99.90
5286;DHT22;2665;53.112;7.358;2023-05-20T13:01:11;23.10;99.90
5286;DHT22;2665;53.112;7.358;2023-05-20T13:03:37;23.40;99.90
5286;DHT22;2665;53.112;7.358;2023-05-20T13:06:03;23.90;99.90
5286;DHT22;2665;53.112;7.358;2023-05-20T13:08:28;24.90;99.90
5286;DHT22;2665;53.112;7.358;2023-05-20T13:10:54;24.50;99.90
5286;DHT22;2665;53.112;7.358;2023-05-20T13:13:20;23.90;99.90
5286;DHT22;2665;53.112;7.358;2023-05-20T13:15:49;23.40;99.90
5286;DHT22;2665;53.112;7.358;2023-05-20T13:18:15;23.20;99.90
5286;DHT22;2665;53.112;7.358;2023-05-20T13:20:44;23.50;99.90
5286;DHT22;2665;53.112;7.358;2023-05-20T13:23:10;23.00;99.90
5286;DHT22;2665;53.112;7.358;2023-05-20T13:25:36;22.20;99.90
5286;DHT22;2665;53.112;7.358;2023-05-20T13:28:03;21.80;99.90
5286;DHT22;2665;53.112;7.358;2023-05-20T13:30:29;21.60;99.90
5286;DHT22;2665;53.112;7.358;2023-05-20T13:32:55;21.50;99.90
5286;DHT22;2665;53.112;7.358;2023-05-20T13:35:20;21.40;99.90
5286;DHT22;2665;53.112;7.358;2023-05-20T13:37:46;21.30;99.90
5286;DHT22;2665;53.112;7.358;2023-05-20T13:40:12;21.10;99.90
5286;DHT22;2665;53.112;7.358;2023-05-20T13:42:38;21.60;99.90
5286;DHT22;2665;53.112;7.358;2023-05-20T14:07:04;20.60;99.90
5286;DHT22;2665;53.112;7.358;2023-05-20T14:09:30;20.60;99.90
5286;DHT22;2665;53.112;7.358;2023-05-20T14:11:55;20.70;99.90
5286;DHT22;2665;53.112;7.358;2023-05-20T14:14:21;20.60;99.90
5286;DHT22;2665;53.112;7.358;2023-05-20T14:16:47;20.40;99.90
5286;DHT22;2665;53.112;7.358;2023-05-20T14:19:12;20.30;99.90
5286;DHT22;2665;53.112;7.358;2023-05-20T14:21:38;20.10;99.90
5286;DHT22;2665;53.112;7.358;2023-05-20T14:24:04;19.90;99.90
5286;DHT22;2665;53.112;7.358;2023-05-20T14:26:30;19.80;99.90
5286;DHT22;2665;53.112;7.358;2023-05-20T14:28:55;19.80;99.90
5286;DHT22;2665;53.112;7.358;2023-05-20T14:31:21;19.80;99.90
5286;DHT22;2665;53.112;7.358;2023-05-20T14:33:46;19.80;99.90
5286;DHT22;2665;53.112;7.358;2023-05-20T14:36:12;19.90;99.90
5286;DHT22;2665;53.112;7.358;2023-05-20T14:38:38;20.00;99.90
5286;DHT22;2665;53.112;7.358;2023-05-20T14:41:03;20.10;99.90
5286;DHT22;2665;53.112;7.358;2023-05-20T14:43:29;20.30;99.90
5286;DHT22;2665;53.112;7.358;2023-05-20T14:45:56;20.70;99.90
5286;DHT22;2665;53.112;7.358;2023-05-20T14:48:22;21.00;99.90
5286;DHT22;2665;53.112;7.358;2023-05-20T14:50:47;20.90;99.90
5286;DHT22;2665;53.112;7.358;2023-05-20T14:53:13;20.70;99.90
5286;DHT22;2665;53.112;7.358;2023-05-20T14:55:39;20.70;99.90
5286;DHT22;2665;53.112;7.358;2023-05-20T14:58:04;20.80;99.90
5286;DHT22;2665;53.112;7.358;2023-05-20T15:00:30;20.90;99.90
5286;DHT22;2665;53.112;7.358;2023-05-20T15:02:57;20.70;99.90
5286;DHT22;2665;53.112;7.358;2023-05-20T15:05:22;20.50;99.90
5286;DHT22;2665;53.112;7.358;2023-05-20T15:07:48;20.20;99.90
5286;DHT22;2665;53.112;7.358;2023-05-20T15:10:14;20.00;99.90
5286;DHT22;2665;53.112;7.358;2023-05-20T15:12:41;19.90;99.90
5286;DHT22;2665;53.112;7.358;2023-05-20T15:15:08;19.60;99.90
5286;DHT22;2665;53.112;7.358;2023-05-20T15:17:34;19.40;99.90
5286;DHT22;2665;53.112;7.358;2023-05-20T15:19:59;19.30;99.90
5286;DHT22;2665;53.112;7.358;2023-05-20T15:22:25;19.10;99.90
5286;DHT22;2665;53.112;7.358;2023-05-20T15:24:51;19.00;99.90
5286;DHT22;2665;53.112;7.358;2023-05-20T15:27:17;19.00;99.90
5286;DHT22;2665;53.112;7.358;2023-05-20T15:29:42;19.00;99.90
5286;DHT22;2665;53.112;7.358;2023-05-20T15:32:08;18.90;99.90
5286;DHT22;2665;53.112;7.358;2023-05-20T15:34:33;18.80;99.90
5286;DHT22;2665;53.112;7.358;2023-05-20T15:36:59;18.80;99.90
5286;DHT22;2665;53.112;7.358;2023-05-20T15:39:25;18.70;99.90
5286;DHT22;2665;53.112;7.358;2023-05-20T15:41:51;18.60;99.90
5286;DHT22;2665;53.112;7.358;2023-05-20T15:44:18;18.50;99.90
5286;DHT22;2665;53.112;7.358;2023-05-20T15:46:44;18.40;99.90
5286;DHT22;2665;53.112;7.358;2023-05-20T15:49:11;18.40;99.90
5286;DHT22;2665;53.112;7.358;2023-05-20T15:51:37;18.30;99.90
5286;DHT22;2665;53.112;7.358;2023-05-20T15:54:03;18.30;99.90
5286;DHT22;2665;53.112;7.358;2023-05-20T15:56:29;18.30;99.90
5286;DHT22;2665;53.112;7.358;2023-05-20T15:58:55;18.30;99.90
5286;DHT22;2665;53.112;7.358;2023-05-20T16:01:21;18.30;99.90
5286;DHT22;2665;53.112;7.358;2023-05-20T16:03:47;18.40;99.90
5286;DHT22;2665;53.112;7.358;2023-05-20T16:06:13;18.60;99.90
5286;DHT22;2665;53.112;7.358;2023-05-20T16:08:39;18.70;99.90
5286;DHT22;2665;53.112;7.358;2023-05-20T16:11:06;19.70;99.90
5286;DHT22;2665;53.112;7.358;2023-05-20T16:13:32;20.10;99.90
5286;DHT22;2665;53.112;7.358;2023-05-20T16:15:58;20.40;99.90
5286;DHT22;2665;53.112;7.358;2023-05-20T16:18:25;20.30;99.90
5286;DHT22;2665;53.112;7.358;2023-05-20T16:20:53;19.90;99.90
5286;DHT22;2665;53.112;7.358;2023-05-20T16:23:18;19.70;99.90
5286;DHT22;2665;53.112;7.358;2023-05-20T16:25:44;19.50;99.90
5286;DHT22;2665;53.112;7.358;2023-05-20T16:28:10;19.40;99.90
5286;DHT22;2665;53.112;7.358;2023-05-20T16:30:35;19.30;99.90
5286;DHT22;2665;53.112;7.358;2023-05-20T16:33:01;19.40;99.90
5286;DHT22;2665;53.112;7.358;2023-05-20T16:35:26;19.40;99.90
5286;DHT22;2665;53.112;7.358;2023-05-20T16:37:52;19.30;99.90
5286;DHT22;2665;53.112;7.358;2023-05-20T16:40:17;19.20;99.90
5286;DHT22;2665;53.112;7.358;2023-05-20T16:42:43;19.00;99.90
5286;DHT22;2665;53.112;7.358;2023-05-20T16:45:10;18.80;99.90
5286;DHT22;2665;53.112;7.358;2023-05-20T16:47:35;18.80;99.90
5286;DHT22;2665;53.112;7.358;2023-05-20T16:50:02;18.70;99.90
5286;DHT22;2665;53.112;7.358;2023-05-20T16:52:28;18.60;99.90
5286;DHT22;2665;53.112;7.358;2023-05-20T16:54:53;18.50;99.90
5286;DHT22;2665;53.112;7.358;2023-05-20T16:57:21;18.60;99.90
5286;DHT22;2665;53.112;7.358;2023-05-20T16:59:47;18.60;99.90
5286;DHT22;2665;53.112;7.358;2023-05-20T17:02:12;18.50;99.90
5286;DHT22;2665;53.112;7.358;2023-05-20T17:04:38;18.50;99.90
5286;DHT22;2665;53.112;7.358;2023-05-20T17:07:03;18.60;99.90
5286;DHT22;2665;53.112;7.358;2023-05-20T17:09:34;18.70;99.90
5286;DHT22;2665;53.112;7.358;2023-05-20T17:12:00;18.70;99.90
5286;DHT22;2665;53.112;7.358;2023-05-20T17:14:27;18.80;99.90
5286;DHT22;2665;53.112;7.358;2023-05-20T17:16:52;18.80;99.90
5286;DHT22;2665;53.112;7.358;2023-05-20T17:19:18;18.70;99.90
5286;DHT22;2665;53.112;7.358;2023-05-20T17:21:43;18.60;99.90
5286;DHT22;2665;53.112;7.358;2023-05-20T17:24:10;18.50;99.90
5286;DHT22;2665;53.112;7.358;2023-05-20T17:26:36;18.50;99.90
5286;DHT22;2665;53.112;7.358;2023-05-20T17:29:01;18.40;99.90
5286;DHT22;2665;53.112;7.358;2023-05-20T17:31:27;18.20;99.90
5286;DHT22;2665;53.112;7.358;2023-05-20T17:33:53;18.10;99.90
